Terminal Aerodrome Forecast
Issued by NWS

Home | Current Version | Previous Version | Text Only | Print | Product List | Glossary On
Versions: 1 2 3 4 5 6 7 8 9 10 11 12 13 14 15 16 17 18 19 20 21 22 23 24 25 26 27 28 29 30 31 32 33 34 35 36 37 38 39 40
000
FTUS44 KOHX 201732
TAFCKV
TAF
KCKV 201732Z 2018/2118 21008KT P6SM BKN035
      TEMPO 2018/2022 BKN025 BKN035
     FM210600 18006KT P6SM BKN025
     FM211000 18005KT 5SM BR OVC007
     FM211500 18010KT P6SM OVC050=

USA.gov is the U.S. government's official web portal to all federal, state and local government web resources and services.